Carthage, South Dakota
Current Conditions -  °F | °C
As of 6:55 PM on Wednesday 22 Oct 2014 (Local Time) from KHON Reporting Station
Broken Clouds Broken Clouds  
Wind Chill: 56°   Ceiling: 3700
Heat Index: 56°   Visibility: 10mi
Dew Point: 52°   Wind: 7mph
Humidity: 87%   Direction: 260°W
Pressure: 29.97"   Gusts: NA
Location:  44.17°N, 97.72°W
Report Text: KHON 222355Z AUTO 26006KT 10SM BKN037 13/11 A2997 RMK AO2 SLP149 60008 T01330111 10183 20128 53009
Loading
Personal Weather Stations






























Interactive Weather Map
Tropical Storm Tracking
New forecast layout! Learn more

10-Day Weather Forecast

Advertisements
Track Severe Weather on mobile